Time;durP1;ratioP1;P1;durP2;ratioP2;P2;SDS_P1;SDS_P2;PMS_P1;PMS_P2;Temp;Humidity;BMP_temperature;BMP_pressure;BME280_temperature;BME280_humidity;BME280_pressure;Samples;Min_cycle;Max_cycle;Signal;HPM_P1;HPM_P2
2024/01/30 00:03:16;;;;;;;8.43;4.22;;;;;;;0.71;66.03;101292.31;10324781;28;20134;-79
2024/01/30 00:08:18;;;;;;;8.88;4.57;;;;;;;0.75;65.80;101293.19;10309973;28;20110;-80
2024/01/30 00:13:20;;;;;;;11.30;4.22;;;;;;;0.73;65.68;101288.00;10310614;28;20058;-79
2024/01/30 00:18:23;;;;;;;8.48;3.97;;;;;;;0.65;65.62;101289.72;10310532;28;20054;-79
2024/01/30 00:23:25;;;;;;;6.47;3.80;;;;;;;0.56;65.91;101287.13;10308763;28;20073;-79
2024/01/30 00:28:27;;;;;;;6.93;3.90;;;;;;;0.49;65.72;101293.09;10306271;28;20399;-79
2024/01/30 00:33:29;;;;;;;9.88;4.22;;;;;;;0.39;65.78;101296.50;10296438;28;20066;-79
2024/01/30 00:38:31;;;;;;;8.30;3.53;;;;;;;0.42;66.21;101297.38;10312836;28;20085;-79
2024/01/30 00:43:33;;;;;;;6.60;3.80;;;;;;;0.35;66.08;101293.09;10311958;28;20062;-79
2024/01/30 00:48:35;;;;;;;6.78;3.42;;;;;;;0.43;66.22;101298.25;10320809;28;20053;-79
2024/01/30 00:53:38;;;;;;;7.13;3.47;;;;;;;0.43;65.93;101287.94;10317332;28;20058;-79
2024/01/30 00:58:40;;;;;;;8.43;3.78;;;;;;;0.47;66.13;101290.53;10308384;28;20053;-79
2024/01/30 01:03:43;;;;;;;6.85;3.30;;;;;;;0.49;66.00;101285.38;10325423;28;20112;-80
2024/01/30 01:08:45;;;;;;;6.63;3.70;;;;;;;0.41;66.08;101285.38;10329161;28;20138;-79
2024/01/30 01:13:48;;;;;;;11.50;4.03;;;;;;;0.46;66.00;101296.53;10333099;28;20128;-80
2024/01/30 01:18:50;;;;;;;5.60;3.67;;;;;;;0.41;65.66;101290.53;10330836;28;20511;-79
2024/01/30 01:23:52;;;;;;;7.78;4.40;;;;;;;0.27;65.90;101289.63;10331266;28;20050;-79
2024/01/30 01:28:54;;;;;;;11.02;4.82;;;;;;;0.16;65.92;101290.44;10330851;28;20109;-79
2024/01/30 01:33:56;;;;;;;12.27;4.20;;;;;;;0.21;66.03;101286.16;10320972;28;20054;-79
2024/01/30 01:38:58;;;;;;;6.40;3.53;;;;;;;0.15;65.99;101279.28;10331884;28;20411;-79
2024/01/30 01:44:00;;;;;;;6.50;3.30;;;;;;;0.18;66.03;101283.59;10329028;28;20057;-79
2024/01/30 01:49:04;;;;;;;8.30;3.50;;;;;;;0.16;66.21;101277.59;10344450;28;20065;-79
2024/01/30 01:54:32;;;;;;;7.60;3.67;;;;;;;-0.00;65.96;101278.34;10345902;28;20069;-78
2024/01/30 01:59:35;;;;;;;6.60;3.28;;;;;;;-0.02;66.27;101282.63;10338034;28;20402;-79
2024/01/30 02:04:37;;;;;;;7.30;3.70;;;;;;;-0.20;66.35;101280.84;10325409;28;20069;-79
2024/01/30 02:09:39;;;;;;;5.70;3.30;;;;;;;-0.24;66.42;101278.22;10334284;28;20634;-79
2024/01/30 02:14:46;;;;;;;5.07;3.13;;;;;;;-0.21;66.66;101278.25;10347815;28;20057;-78
2024/01/30 02:19:48;;;;;;;9.13;3.60;;;;;;;-0.10;66.24;101271.44;10312216;28;21136;-79
2024/01/30 02:24:50;;;;;;;6.57;3.80;;;;;;;-0.10;66.49;101263.72;10312151;28;20054;-79
2024/01/30 02:29:52;;;;;;;10.48;3.67;;;;;;;0.02;66.32;101264.66;10344043;28;20056;-79
2024/01/30 02:34:54;;;;;;;9.55;3.60;;;;;;;0.03;66.11;101261.25;10319489;28;20053;-79
2024/01/30 02:39:56;;;;;;;7.03;3.90;;;;;;;0.04;66.05;101264.66;10324327;28;20082;-78
2024/01/30 02:44:58;;;;;;;6.38;3.72;;;;;;;-0.17;66.00;101267.13;10313633;28;20060;-79
2024/01/30 02:50:00;;;;;;;8.43;3.97;;;;;;;-0.18;66.11;101263.69;10309866;28;20108;-79
2024/01/30 02:55:03;;;;;;;7.85;3.40;;;;;;;-0.06;66.31;101262.88;10300857;28;20610;-79
2024/01/30 03:00:09;;;;;;;7.63;3.97;;;;;;;0.01;66.27;101264.66;10297783;28;20507;-79
2024/01/30 03:05:11;;;;;;;8.77;3.53;;;;;;;-0.00;65.84;101257.78;10314305;28;20077;-79
2024/01/30 03:10:13;;;;;;;7.32;3.50;;;;;;;-0.04;66.12;101256.03;10295505;28;20058;-78
2024/01/30 03:15:15;;;;;;;5.18;3.35;;;;;;;-0.05;65.85;101254.34;10321645;28;20105;-78
2024/01/30 03:20:17;;;;;;;7.38;3.65;;;;;;;-0.07;65.80;101253.47;10313299;28;20515;-78
2024/01/30 03:25:19;;;;;;;9.35;3.50;;;;;;;-0.21;66.06;101245.72;10304826;28;20069;-78
2024/01/30 03:30:23;;;;;;;7.65;3.17;;;;;;;-0.22;66.10;101251.69;10321683;28;20062;-79
2024/01/30 03:35:25;;;;;;;6.80;3.05;;;;;;;-0.33;65.82;101241.34;10311278;28;20606;-78
2024/01/30 03:40:27;;;;;;;5.65;3.13;;;;;;;-0.28;66.24;101243.06;10323994;28;20447;-79
2024/01/30 03:45:29;;;;;;;8.18;3.88;;;;;;;-0.16;66.04;101243.13;10312607;28;20058;-79
2024/01/30 03:50:31;;;;;;;6.95;3.13;;;;;;;-0.20;65.89;101237.13;10279501;28;20058;-79
2024/01/30 03:55:33;;;;;;;5.43;3.05;;;;;;;-0.15;65.93;101242.28;10313397;28;20069;-79
2024/01/30 04:00:35;;;;;;;6.45;3.50;;;;;;;-0.18;66.07;101243.13;10312086;28;20050;-79
2024/01/30 04:05:37;;;;;;;9.15;3.78;;;;;;;-0.20;66.10;101238.81;10337036;28;20090;-79
2024/01/30 04:10:40;;;;;;;5.70;3.50;;;;;;;-0.22;65.88;101236.25;10336628;28;20140;-78
2024/01/30 04:15:42;;;;;;;6.72;4.10;;;;;;;-0.35;65.74;101242.19;10314887;28;20069;-78
2024/01/30 04:20:45;;;;;;;6.07;3.80;;;;;;;-0.39;66.05;101243.88;10296114;28;21010;-79
2024/01/30 04:25:47;;;;;;;7.45;3.67;;;;;;;-0.28;65.94;101243.94;10320191;28;20058;-78
2024/01/30 04:30:49;;;;;;;8.18;3.38;;;;;;;-0.21;66.10;101239.69;10310249;28;20042;-81
2024/01/30 04:35:51;;;;;;;5.82;3.40;;;;;;;-0.19;65.60;101238.88;10306561;28;20336;-82
2024/01/30 04:40:54;;;;;;;6.22;3.05;;;;;;;-0.30;65.88;101240.50;10314670;28;20046;-83
2024/01/30 04:45:56;;;;;;;6.40;3.83;;;;;;;-0.24;65.96;101250.81;10304029;28;20054;-83
2024/01/30 04:50:58;;;;;;;8.00;3.97;;;;;;;-0.17;65.88;101236.28;10319730;28;20054;-83
2024/01/30 04:56:00;;;;;;;6.30;3.17;;;;;;;-0.17;65.82;101246.56;10318632;28;20058;-83
2024/01/30 05:01:02;;;;;;;5.82;3.33;;;;;;;-0.16;65.83;101243.13;10302656;28;20052;-81
2024/01/30 05:06:05;;;;;;;6.20;3.63;;;;;;;-0.33;65.94;101238.78;10317220;28;20069;-80
2024/01/30 05:11:07;;;;;;;12.98;4.07;;;;;;;-0.45;66.27;101233.56;10302670;28;20137;-80
2024/01/30 05:16:10;;;;;;;8.00;3.88;;;;;;;-0.45;66.50;101237.84;10310896;28;20105;-80
2024/01/30 05:21:12;;;;;;;8.43;3.80;;;;;;;-0.43;66.50;101234.44;10327994;28;20038;-81
2024/01/30 05:26:14;;;;;;;10.48;3.80;;;;;;;-0.31;66.45;101231.06;10301065;28;20133;-81
2024/01/30 05:31:16;;;;;;;6.47;3.42;;;;;;;-0.24;66.29;101237.97;10317224;28;20050;-82
2024/01/30 05:36:19;;;;;;;7.78;4.00;;;;;;;-0.32;66.08;101232.78;10318134;28;20050;-82
2024/01/30 05:41:21;;;;;;;7.97;3.80;;;;;;;-0.35;65.96;101237.91;10328602;28;20057;-82
2024/01/30 05:46:23;;;;;;;8.38;3.92;;;;;;;-0.38;66.33;101243.06;10303564;28;20440;-82
2024/01/30 05:51:27;;;;;;;9.60;4.22;;;;;;;-0.37;66.21;101234.47;10284616;28;20050;-81
2024/01/30 05:56:30;;;;;;;7.35;3.55;;;;;;;-0.39;65.77;101241.31;10307674;28;20555;-82
2024/01/30 06:01:33;;;;;;;9.70;4.25;;;;;;;-0.53;66.14;101239.50;10320436;28;20066;-82
2024/01/30 06:06:35;;;;;;;11.95;4.57;;;;;;;-0.47;66.21;101234.41;10294960;28;20177;-81
2024/01/30 06:11:37;;;;;;;7.05;3.75;;;;;;;-0.41;66.24;101250.72;10315441;28;20137;-81
2024/01/30 06:16:39;;;;;;;7.22;4.00;;;;;;;-0.36;66.20;101243.91;10285803;28;20050;-81
2024/01/30 06:21:41;;;;;;;19.67;4.63;;;;;;;-0.32;66.12;101244.78;10300733;28;20053;-81
2024/01/30 06:26:44;;;;;;;6.35;3.50;;;;;;;-0.37;66.14;101243.88;10298961;28;20081;-81
2024/01/30 06:31:46;;;;;;;9.65;4.65;;;;;;;-0.34;66.15;101244.78;10315886;28;20415;-81
2024/01/30 06:36:48;;;;;;;14.63;4.75;;;;;;;-0.40;66.30;101237.03;10284194;28;20124;-81
2024/01/30 06:41:50;;;;;;;15.48;4.13;;;;;;;-0.35;66.41;101239.59;10314907;28;20049;-81
2024/01/30 06:46:52;;;;;;;8.88;4.43;;;;;;;-0.36;66.18;101238.78;10315320;28;20073;-81
2024/01/30 06:51:54;;;;;;;14.65;5.03;;;;;;;-0.38;66.29;101239.59;10298833;28;20074;-81
2024/01/30 06:56:56;;;;;;;8.90;3.75;;;;;;;-0.34;66.50;101246.47;10300422;28;20447;-82
2024/01/30 07:01:58;;;;;;;9.98;4.18;;;;;;;-0.32;66.17;101243.06;10294022;28;20046;-81
2024/01/30 07:07:01;;;;;;;7.78;3.95;;;;;;;-0.33;66.23;101256.75;10314364;28;20153;-81
2024/01/30 07:12:03;;;;;;;8.85;3.67;;;;;;;-0.31;66.18;101247.34;10292576;28;20058;-81
2024/01/30 07:17:06;;;;;;;7.10;3.75;;;;;;;-0.48;65.79;101254.13;10325613;28;20050;-81
2024/01/30 07:22:08;;;;;;;5.60;3.63;;;;;;;-0.59;66.25;101250.63;10317734;28;20047;-81
2024/01/30 07:27:10;;;;;;;9.48;4.20;;;;;;;-0.64;66.17;101254.88;10316491;28;20058;-81
2024/01/30 07:32:12;;;;;;;6.97;4.07;;;;;;;-0.54;66.38;101263.50;10332630;28;20050;-81
2024/01/30 07:37:15;;;;;;;9.57;5.15;;;;;;;-0.40;66.45;101269.59;10312111;28;20074;-81
2024/01/30 07:42:18;;;;;;;12.70;4.47;;;;;;;-0.36;66.12;101267.03;10289594;28;20066;-82
2024/01/30 07:47:20;;;;;;;13.15;5.35;;;;;;;-0.21;66.04;101273.13;10318080;28;20058;-81
2024/01/30 07:52:22;;;;;;;9.50;4.75;;;;;;;-0.06;66.12;101270.59;10318858;28;20066;-82
2024/01/30 07:57:24;;;;;;;10.27;4.85;;;;;;;0.09;65.85;101276.69;10290093;28;20400;-82
2024/01/30 08:02:27;;;;;;;62.97;4.63;;;;;;;0.25;65.88;101265.59;10297541;28;20056;-82
2024/01/30 08:07:30;;;;;;;10.80;4.10;;;;;;;0.47;65.54;101274.22;10313089;28;20164;-82
2024/01/30 08:12:32;;;;;;;10.15;4.63;;;;;;;0.57;65.25;101287.97;10320159;28;20058;-82
2024/01/30 08:17:34;;;;;;;8.80;3.97;;;;;;;0.67;65.36;101282.84;10321059;28;20125;-82
2024/01/30 08:22:39;;;;;;;6.55;3.83;;;;;;;0.82;65.22;101282.88;10293404;28;20054;-82
2024/01/30 08:27:41;;;;;;;10.35;4.70;;;;;;;0.84;65.16;101276.03;10325777;28;20569;-82
2024/01/30 08:32:43;;;;;;;8.98;4.70;;;;;;;0.89;65.06;101273.47;10293109;28;20054;-82
2024/01/30 08:37:45;;;;;;;32.25;5.15;;;;;;;0.70;65.00;101275.16;10324196;28;20415;-82
2024/01/30 08:42:47;;;;;;;7.43;4.53;;;;;;;0.69;65.39;101278.56;10292536;28;20062;-82
2024/01/30 08:47:49;;;;;;;9.52;4.38;;;;;;;0.87;65.13;101262.31;10308843;28;20145;-82
2024/01/30 08:52:52;;;;;;;7.72;3.90;;;;;;;0.97;65.00;101264.84;10307611;28;20057;-80
2024/01/30 08:57:54;;;;;;;7.45;3.75;;;;;;;1.04;65.14;101269.16;10332169;28;20054;-79
2024/01/30 09:02:56;;;;;;;9.00;4.13;;;;;;;1.13;64.99;101274.34;10321120;28;20065;-79
2024/01/30 09:07:59;;;;;;;8.40;4.63;;;;;;;1.17;64.79;101281.19;10320972;28;20062;-79
2024/01/30 09:13:02;;;;;;;9.40;4.82;;;;;;;1.41;64.98;101290.63;10305536;28;20062;-79
2024/01/30 09:18:04;;;;;;;9.20;4.18;;;;;;;1.63;64.37;101289.72;10305224;28;20058;-78
2024/01/30 09:23:06;;;;;;;9.55;4.28;;;;;;;1.59;64.45;101292.31;10318451;28;20050;-78
2024/01/30 09:28:08;;;;;;;9.07;4.55;;;;;;;1.62;64.42;101288.03;10325712;28;20054;-78
2024/01/30 09:33:10;;;;;;;9.80;4.68;;;;;;;1.84;64.34;101281.94;10325658;28;20519;-78
2024/01/30 09:38:13;;;;;;;9.95;4.82;;;;;;;2.03;64.09;101275.00;10313923;28;20571;-78
2024/01/30 09:43:21;;;;;;;7.07;4.85;;;;;;;1.87;64.09;101275.94;10323500;28;20050;-77
2024/01/30 09:48:26;;;;;;;9.75;4.88;;;;;;;1.76;64.43;101287.97;10322899;28;20054;-77
2024/01/30 09:53:28;;;;;;;7.88;4.40;;;;;;;1.79;64.51;101285.38;10321719;28;20046;-77
2024/01/30 09:58:30;;;;;;;11.00;4.82;;;;;;;1.93;64.42;101292.22;10313897;28;20054;-77
2024/01/30 10:03:33;;;;;;;7.10;4.15;;;;;;;2.16;64.01;101286.97;10321722;28;20057;-76
2024/01/30 10:08:35;;;;;;;7.70;4.45;;;;;;;2.29;63.86;101285.22;10321153;28;20147;-75
2024/01/30 10:13:38;;;;;;;8.55;4.90;;;;;;;2.52;63.72;101284.22;10317784;28;20038;-77
2024/01/30 10:18:41;;;;;;;8.93;5.07;;;;;;;2.62;63.37;101285.88;10310740;28;20397;-77
2024/01/30 10:23:45;;;;;;;11.07;5.18;;;;;;;2.60;63.51;101290.19;10320792;28;20050;-77
2024/01/30 10:28:48;;;;;;;10.05;4.53;;;;;;;2.77;63.72;101274.59;10310955;28;20057;-77
2024/01/30 10:33:51;;;;;;;9.27;5.13;;;;;;;2.96;63.06;101276.19;10310684;28;20050;-77
2024/01/30 10:39:06;;;;;;;12.57;5.03;;;;;;;3.27;62.93;101275.09;10295799;28;20089;-77
2024/01/30 10:44:10;;;;;;;10.02;5.32;;;;;;;3.57;62.42;101281.69;10292908;28;20077;-77
2024/01/30 10:49:14;;;;;;;10.98;5.35;;;;;;;3.62;62.66;101274.75;10325647;28;20061;-77
2024/01/30 10:54:17;;;;;;;9.02;5.00;;;;;;;3.58;62.10;101273.91;10318885;28;20054;-77
2024/01/30 10:59:23;;;;;;;8.80;4.95;;;;;;;3.80;62.63;101271.97;10318341;28;20050;-77
2024/01/30 11:04:25;;;;;;;10.05;5.63;;;;;;;3.81;62.48;101271.09;10292956;28;20140;-77
2024/01/30 11:09:29;;;;;;;11.82;5.28;;;;;;;4.13;62.17;101263.00;10308555;28;20607;-76
2024/01/30 11:14:31;;;;;;;8.40;4.90;;;;;;;4.25;62.05;101266.25;10308202;28;20057;-77
2024/01/30 11:19:33;;;;;;;9.48;5.70;;;;;;;4.43;61.95;101272.97;10291922;28;20050;-76
2024/01/30 11:24:43;;;;;;;8.30;5.30;;;;;;;4.49;62.01;101276.34;10289683;28;20062;-77
2024/01/30 11:29:50;;;;;;;12.02;5.63;;;;;;;4.57;61.91;101276.22;10291651;28;20097;-76
2024/01/30 11:34:52;;;;;;;9.07;5.65;;;;;;;4.77;61.71;101252.59;10300058;28;20057;-76
2024/01/30 11:39:56;;;;;;;10.70;5.63;;;;;;;4.96;61.61;101247.13;10314753;28;20082;-77
2024/01/30 11:45:02;;;;;;;10.77;5.47;;;;;;;5.08;61.07;101243.47;10291926;28;20058;-77
2024/01/30 11:50:06;;;;;;;10.38;5.18;;;;;;;5.16;61.55;101246.78;10288901;28;20066;-77
2024/01/30 11:55:09;;;;;;;8.82;5.82;;;;;;;5.05;61.77;101239.19;10308868;28;20058;-77
2024/01/30 12:00:18;;;;;;;9.32;5.03;;;;;;;5.23;61.79;101230.22;10320981;28;20136;-77
2024/01/30 12:05:20;;;;;;;10.35;5.28;;;;;;;5.25;61.59;101225.84;10322057;28;20496;-77
2024/01/30 12:10:23;;;;;;;10.88;5.10;;;;;;;5.48;61.65;101210.75;10334849;28;20054;-77
2024/01/30 12:15:25;;;;;;;10.45;5.90;;;;;;;5.69;61.32;101187.00;10322055;28;20848;-77
2024/01/30 12:20:27;;;;;;;9.82;5.60;;;;;;;5.83;61.16;101184.09;10323834;28;20049;-77
2024/01/30 12:25:30;;;;;;;10.40;6.15;;;;;;;6.02;61.12;101164.66;10329049;28;20085;-77
2024/01/30 12:30:34;;;;;;;10.35;6.45;;;;;;;6.30;60.57;101169.25;10304278;28;20442;-78
2024/01/30 12:35:36;;;;;;;13.00;6.38;;;;;;;6.34;60.48;101167.44;10319864;28;20050;-78
2024/01/30 12:40:54;;;;;;;10.73;6.40;;;;;;;6.48;60.25;101185.28;10326202;28;20823;-78
2024/01/30 12:45:56;;;;;;;12.15;6.20;;;;;;;6.62;60.21;101172.81;10319207;28;20384;-78
2024/01/30 12:50:58;;;;;;;13.15;6.60;;;;;;;6.71;60.17;101163.09;10320812;28;20053;-78
2024/01/30 12:56:01;;;;;;;12.82;5.63;;;;;;;6.65;60.39;101170.16;10288903;28;20480;-77
2024/01/30 13:01:03;;;;;;;9.43;5.30;;;;;;;6.59;59.97;101178.97;10291653;28;20169;-78
2024/01/30 13:06:06;;;;;;;10.20;5.50;;;;;;;6.78;60.02;101174.16;10327763;28;20058;-78
2024/01/30 13:11:08;;;;;;;8.43;5.22;;;;;;;7.00;60.08;101172.72;10300206;28;20415;-77
2024/01/30 13:16:22;;;;;;;11.55;5.72;;;;;;;7.18;59.76;101169.69;10323741;28;20057;-78
2024/01/30 13:21:24;;;;;;;12.30;5.75;;;;;;;7.40;59.45;101155.19;10325323;28;20147;-79
2024/01/30 13:26:27;;;;;;;8.32;5.60;;;;;;;7.37;59.37;101160.47;10326550;28;20491;-79
2024/01/30 13:31:29;;;;;;;13.43;6.03;;;;;;;7.43;59.27;101160.31;10312067;28;20049;-78
2024/01/30 13:36:31;;;;;;;9.70;5.60;;;;;;;7.54;59.09;101160.88;10315143;28;20081;-78
2024/01/30 13:41:33;;;;;;;9.95;5.97;;;;;;;7.64;59.13;101153.66;10313786;28;20038;-78
2024/01/30 13:46:36;;;;;;;11.95;5.97;;;;;;;7.64;58.93;101148.44;10298299;28;20057;-78
2024/01/30 13:51:38;;;;;;;11.10;5.90;;;;;;;7.49;59.18;101152.31;10312490;28;20041;-78
2024/01/30 13:56:40;;;;;;;11.98;5.72;;;;;;;7.44;59.25;101151.63;10295547;28;20061;-78
2024/01/30 14:01:42;;;;;;;8.70;4.82;;;;;;;7.32;59.50;101148.50;10295352;28;20050;-79
2024/01/30 14:06:44;;;;;;;8.13;4.65;;;;;;;7.31;59.61;101147.63;10312668;28;20420;-78
2024/01/30 14:11:58;;;;;;;10.70;5.68;;;;;;;7.17;59.67;101152.34;10322456;28;20054;-78
2024/01/30 14:17:00;;;;;;;10.40;5.47;;;;;;;6.96;60.10;101171.09;10312029;28;20062;-79
2024/01/30 14:22:02;;;;;;;9.90;5.40;;;;;;;7.00;60.21;101180.53;10314640;28;20050;-78
2024/01/30 14:27:05;;;;;;;11.27;6.15;;;;;;;6.96;60.03;101178.91;10314288;28;20066;-78
2024/01/30 14:32:07;;;;;;;8.75;5.00;;;;;;;7.04;60.32;101183.03;10338622;28;20125;-78
2024/01/30 14:37:09;;;;;;;10.10;5.60;;;;;;;7.09;60.50;101182.91;10329865;28;20144;-78
2024/01/30 14:42:11;;;;;;;11.15;5.90;;;;;;;7.10;60.77;101187.25;10284714;28;20097;-79
2024/01/30 14:47:14;;;;;;;12.23;5.93;;;;;;;6.83;61.15;101198.31;10313487;28;20054;-78
2024/01/30 14:52:16;;;;;;;9.98;5.07;;;;;;;6.79;61.50;101191.50;10322646;28;20058;-79
2024/01/30 14:57:19;;;;;;;9.05;5.53;;;;;;;6.87;61.28;101194.75;10318242;28;20062;-79
2024/01/30 15:02:21;;;;;;;13.82;6.15;;;;;;;6.95;61.44;101190.22;10322069;28;20047;-79
2024/01/30 15:07:23;;;;;;;10.60;6.05;;;;;;;6.99;61.47;101200.50;10319432;28;20054;-78
2024/01/30 15:12:39;;;;;;;11.32;6.50;;;;;;;6.98;61.40;101205.72;10294059;28;20050;-79
2024/01/30 15:17:41;;;;;;;11.30;6.15;;;;;;;6.97;61.40;101198.84;10309568;28;20534;-79
2024/01/30 15:22:44;;;;;;;11.40;6.13;;;;;;;6.90;61.75;101215.47;10323315;28;20058;-78
2024/01/30 15:27:47;;;;;;;17.40;6.43;;;;;;;6.92;61.68;101211.09;10310216;28;20054;-78
2024/01/30 15:32:49;;;;;;;15.32;6.05;;;;;;;6.94;61.81;101206.69;10308922;28;20097;-78
2024/01/30 15:37:52;;;;;;;10.65;5.68;;;;;;;6.82;61.86;101207.88;10310758;28;20046;-79
2024/01/30 15:42:56;;;;;;;9.52;6.38;;;;;;;6.71;62.07;101206.41;10311620;28;20069;-78
2024/01/30 15:47:59;;;;;;;11.43;6.53;;;;;;;6.63;62.16;101223.94;10302388;28;20065;-78
2024/01/30 15:53:01;;;;;;;12.60;6.63;;;;;;;6.61;62.32;101230.91;10315211;28;20060;-78
2024/01/30 15:58:05;;;;;;;9.45;5.65;;;;;;;6.58;62.34;101228.38;10322691;28;20142;-79
2024/01/30 16:03:07;;;;;;;10.20;5.97;;;;;;;6.56;62.22;101232.75;10320880;28;20046;-79
2024/01/30 16:08:10;;;;;;;11.00;6.72;;;;;;;6.57;62.24;101248.31;10328981;28;20590;-79
2024/01/30 16:13:12;;;;;;;10.50;5.60;;;;;;;6.58;62.24;101260.44;10336886;28;20112;-79
2024/01/30 16:18:16;;;;;;;6.40;4.25;;;;;;;6.59;62.84;101262.16;10318623;28;20601;-78
2024/01/30 16:23:19;;;;;;;8.20;4.28;;;;;;;6.66;64.17;101258.50;10335335;28;20053;-79
2024/01/30 16:28:41;;;;;;;9.48;3.67;;;;;;;6.79;64.74;101279.88;10318443;28;20579;-78
2024/01/30 16:34:03;;;;;;;7.80;3.60;;;;;;;7.09;65.01;101260.97;10315092;28;20045;-79
2024/01/30 16:39:25;;;;;;;6.22;3.25;;;;;;;7.27;66.07;101273.50;10363714;28;20062;-79
2024/01/30 16:44:48;;;;;;;7.13;3.17;;;;;;;7.54;65.14;101282.38;10341455;28;20054;-79
2024/01/30 16:51:04;;;;;;;4.40;2.78;;;;;;;7.73;65.75;101286.22;10339018;28;20507;-78
2024/01/30 16:56:26;;;;;;;5.05;3.17;;;;;;;7.73;64.82;101294.03;10326561;28;20066;-78
2024/01/30 17:01:48;;;;;;;6.43;3.33;;;;;;;7.75;65.21;101285.25;10343000;28;20046;-79
2024/01/30 17:07:10;;;;;;;6.93;2.85;;;;;;;7.79;65.34;101297.28;10345159;28;20057;-78
2024/01/30 17:12:32;;;;;;;10.05;3.30;;;;;;;7.85;65.25;101302.34;10329006;28;20050;-78
2024/01/30 17:17:55;;;;;;;7.32;3.38;;;;;;;7.92;65.03;101301.28;10327609;28;20058;-75
2024/01/30 17:23:17;;;;;;;5.70;3.30;;;;;;;7.95;65.14;101301.22;10324917;28;20064;-76
2024/01/30 17:28:39;;;;;;;6.32;3.15;;;;;;;7.84;65.69;101308.47;10342686;28;20414;-76
2024/01/30 17:34:01;;;;;;;7.88;3.40;;;;;;;7.99;65.20;101312.41;10337968;28;20115;-79
2024/01/30 17:39:24;;;;;;;8.48;3.17;;;;;;;7.92;65.79;101316.91;10328797;28;20470;-79
2024/01/30 17:44:46;;;;;;;5.15;3.03;;;;;;;8.07;65.35;101322.59;10339704;28;20046;-76
2024/01/30 17:50:09;;;;;;;5.80;3.05;;;;;;;8.12;65.46;101324.22;10323978;28;20454;-76
2024/01/30 17:55:12;;;;;;;5.65;3.35;;;;;;;8.20;65.25;101331.84;10317069;28;20045;-78
2024/01/30 18:00:14;;;;;;;7.40;2.97;;;;;;;8.24;65.39;101334.28;10331252;28;20046;-77
2024/01/30 18:05:20;;;;;;;6.30;3.28;;;;;;;8.31;65.35;101343.66;10316903;28;20604;-78
2024/01/30 18:10:22;;;;;;;9.00;3.17;;;;;;;8.31;65.40;101335.84;10284971;28;20060;-78
2024/01/30 18:15:24;;;;;;;6.82;3.13;;;;;;;8.32;65.09;101334.97;10323488;28;20077;-78
2024/01/30 18:20:26;;;;;;;7.18;3.17;;;;;;;8.31;65.15;101329.78;10302712;28;20137;-77
2024/01/30 18:25:29;;;;;;;6.18;3.50;;;;;;;8.34;65.30;101337.53;10319220;28;20049;-77
2024/01/30 18:30:31;;;;;;;7.38;3.10;;;;;;;8.42;65.33;101349.44;10304892;28;20403;-77
2024/01/30 18:35:34;;;;;;;5.47;2.95;;;;;;;8.45;65.39;101357.16;10304655;28;20496;-78
2024/01/30 18:40:37;;;;;;;5.63;3.33;;;;;;;8.37;65.73;101363.47;10328271;28;20072;-77
2024/01/30 18:45:39;;;;;;;7.05;3.20;;;;;;;8.35;65.89;101363.53;10352505;28;20081;-77
2024/01/30 18:50:43;;;;;;;5.60;2.92;;;;;;;8.22;66.62;101362.16;10301513;28;20119;-77
2024/01/30 18:55:47;;;;;;;6.47;3.28;;;;;;;8.40;65.76;101366.88;10300633;28;20181;-77
2024/01/30 19:00:49;;;;;;;6.68;3.85;;;;;;;8.43;65.94;101361.56;10315537;28;20050;-78
2024/01/30 19:05:51;;;;;;;7.50;3.15;;;;;;;8.41;66.19;101368.56;10304997;28;20472;-77
2024/01/30 19:10:54;;;;;;;7.78;3.78;;;;;;;8.47;66.08;101368.41;10314535;28;20046;-77
2024/01/30 19:15:56;;;;;;;13.00;5.45;;;;;;;8.60;65.95;101376.72;10287328;28;20058;-77
2024/01/30 19:21:00;;;;;;;14.95;5.78;;;;;;;8.58;65.98;101376.78;10312595;28;20515;-77
2024/01/30 19:26:03;;;;;;;14.30;5.22;;;;;;;8.57;66.09;101369.84;10298908;28;20128;-78
2024/01/30 19:31:05;;;;;;;7.25;3.55;;;;;;;8.59;66.12;101378.47;10313968;28;20058;-78
2024/01/30 19:36:08;;;;;;;7.60;3.83;;;;;;;8.58;66.28;101383.75;10303712;28;20073;-78
2024/01/30 19:41:13;;;;;;;10.25;4.78;;;;;;;8.62;66.08;101380.16;10309014;28;20043;-78
2024/01/30 19:46:16;;;;;;;7.70;4.05;;;;;;;8.71;65.99;101398.13;10288413;28;20117;-78
2024/01/30 19:51:19;;;;;;;7.72;3.78;;;;;;;8.80;65.88;101414.38;10314231;28;20563;-78
2024/01/30 19:56:21;;;;;;;7.63;3.45;;;;;;;8.87;65.92;101430.72;10307414;28;20061;-78
2024/01/30 20:01:24;;;;;;;6.93;3.50;;;;;;;8.95;65.54;101427.88;10306100;28;20101;-79
2024/01/30 20:06:26;;;;;;;6.60;3.60;;;;;;;9.02;65.38;101422.44;10308409;28;20499;-78
2024/01/30 20:11:28;;;;;;;7.28;3.70;;;;;;;9.12;65.23;101418.66;10292420;28;20597;-79
2024/01/30 20:16:38;;;;;;;7.95;4.60;;;;;;;9.23;64.96;101429.63;10311427;28;20157;-79
2024/01/30 20:21:40;;;;;;;8.63;4.03;;;;;;;9.32;64.77;101433.72;10310857;28;20419;-78
2024/01/30 20:27:08;;;;;;;6.43;3.55;;;;;;;9.24;64.40;101441.75;10291239;28;20077;-78
2024/01/30 20:32:10;;;;;;;6.80;3.53;;;;;;;9.24;64.50;101446.97;10300592;28;20082;-78
2024/01/30 20:37:12;;;;;;;9.57;3.90;;;;;;;9.04;64.91;101453.69;10307921;28;20046;-78
2024/01/30 20:42:14;;;;;;;7.25;3.85;;;;;;;8.93;65.07;101451.41;10290647;28;20502;-78
2024/01/30 20:47:16;;;;;;;6.97;3.63;;;;;;;8.97;65.11;101447.81;10315350;28;20054;-77
2024/01/30 20:52:18;;;;;;;7.28;3.70;;;;;;;8.95;65.13;101452.22;10321452;28;20046;-78
2024/01/30 20:57:20;;;;;;;8.35;4.75;;;;;;;9.06;64.98;101462.31;10290272;28;20146;-78
2024/01/30 21:02:22;;;;;;;7.90;4.00;;;;;;;9.06;64.66;101470.16;10290072;28;20051;-78
2024/01/30 21:07:24;;;;;;;6.75;3.47;;;;;;;9.01;64.72;101475.53;10306149;28;20054;-78
2024/01/30 21:12:27;;;;;;;6.40;3.80;;;;;;;9.01;64.76;101482.50;10305546;28;20049;-78
2024/01/30 21:17:30;;;;;;;6.85;3.78;;;;;;;9.06;64.64;101483.22;10305733;28;20969;-78
2024/01/30 21:22:32;;;;;;;5.32;3.15;;;;;;;9.11;64.25;101478.72;10303925;28;20081;-78
2024/01/30 21:27:38;;;;;;;6.63;3.53;;;;;;;9.07;64.41;101485.78;10311013;28;20058;-78
2024/01/30 21:32:40;;;;;;;6.38;3.78;;;;;;;8.99;64.31;101477.34;10328221;28;20050;-78
2024/01/30 21:37:44;;;;;;;8.77;3.38;;;;;;;8.97;64.43;101486.97;10296801;28;20127;-78
2024/01/30 21:42:46;;;;;;;9.95;3.65;;;;;;;9.04;64.00;101485.88;10297451;28;20051;-78
2024/01/30 21:47:50;;;;;;;7.90;3.75;;;;;;;9.02;64.01;101494.63;10290065;28;20096;-78
2024/01/30 21:52:53;;;;;;;12.73;3.80;;;;;;;9.01;63.99;101482.50;10297607;28;20054;-79
2024/01/30 21:57:57;;;;;;;6.43;3.60;;;;;;;8.80;64.04;101491.78;10298053;28;20061;-79
2024/01/30 22:03:01;;;;;;;5.07;2.80;;;;;;;8.78;63.97;101499.66;10312233;28;20046;-79
2024/01/30 22:08:04;;;;;;;7.53;2.83;;;;;;;8.79;63.89;101496.13;10312955;28;20060;-79
2024/01/30 22:13:07;;;;;;;4.82;2.50;;;;;;;8.82;63.80;101492.59;10296332;28;20746;-78
2024/01/30 22:18:10;;;;;;;4.45;2.53;;;;;;;8.83;63.34;101494.31;10313786;28;20056;-78
2024/01/30 22:23:13;;;;;;;5.95;2.90;;;;;;;8.82;63.32;101496.06;10298639;28;20054;-79
2024/01/30 22:28:16;;;;;;;4.75;2.60;;;;;;;8.78;63.30;101497.06;10289244;28;20105;-79
2024/01/30 22:33:18;;;;;;;7.63;2.85;;;;;;;8.72;63.39;101506.78;10311830;28;20054;-79
2024/01/30 22:38:20;;;;;;;7.63;3.00;;;;;;;8.74;63.27;101512.81;10293361;28;20061;-78
2024/01/30 22:43:24;;;;;;;4.88;2.95;;;;;;;8.74;63.34;101516.28;10310772;28;20514;-78
2024/01/30 22:48:26;;;;;;;7.63;3.20;;;;;;;8.73;63.20;101525.00;10297759;28;20153;-79
2024/01/30 22:53:28;;;;;;;8.00;2.90;;;;;;;8.75;63.15;101514.56;10332810;28;20046;-78
2024/01/30 22:58:30;;;;;;;5.97;2.40;;;;;;;8.69;63.10;101525.13;10309321;28;20054;-79
2024/01/30 23:03:33;;;;;;;6.00;2.90;;;;;;;8.62;63.20;101536.63;10303704;28;20042;-78
2024/01/30 23:08:36;;;;;;;7.07;3.00;;;;;;;8.61;63.08;101533.16;10316484;28;20054;-79
2024/01/30 23:13:40;;;;;;;8.73;3.50;;;;;;;8.63;63.10;101538.31;10296361;28;20057;-79
2024/01/30 23:18:50;;;;;;;7.55;2.88;;;;;;;8.56;62.95;101555.03;10317917;28;20062;-79
2024/01/30 23:23:52;;;;;;;5.10;2.60;;;;;;;8.52;63.17;101559.50;10320316;28;20089;-79
2024/01/30 23:28:54;;;;;;;5.93;2.53;;;;;;;8.49;63.03;101563.91;10339309;28;20050;-79